Time;durP1;ratioP1;P1;durP2;ratioP2;P2;SDS_P1;SDS_P2;PMS_P1;PMS_P2;Temp;Humidity;BMP_temperature;BMP_pressure;BME280_temperature;BME280_humidity;BME280_pressure;Samples;Min_cycle;Max_cycle;Signal;HPM_P1;HPM_P2
2022/06/14 00:01:56;;;;;;;0.10;0.10;;;;;;;;;;5049040;28;20342;-69
2022/06/14 00:04:23;;;;;;;0.10;0.10;;;;;;;;;;5046986;28;20299;-69
2022/06/14 00:06:49;;;;;;;0.00;0.00;;;;;;;;;;5048628;28;20232;-68
2022/06/14 00:09:15;;;;;;;0.03;0.03;;;;;;;;;;5047650;28;20296;-68
2022/06/14 00:11:42;;;;;;;0.05;0.05;;;;;;;;;;5047260;28;20251;-68
2022/06/14 00:14:10;;;;;;;0.10;0.10;;;;;;;;;;5048146;28;20384;-68
2022/06/14 00:16:37;;;;;;;0.10;0.10;;;;;;;;;;5046805;28;20294;-69
2022/06/14 00:19:05;;;;;;;0.10;0.10;;;;;;;;;;5048612;28;20207;-67
2022/06/14 00:21:32;;;;;;;0.10;0.10;;;;;;;;;;5046194;28;20258;-68
2022/06/14 00:23:59;;;;;;;0.10;0.10;;;;;;;;;;5049412;28;20275;-68
2022/06/14 00:26:25;;;;;;;0.10;0.10;;;;;;;;;;5044763;28;20238;-68
2022/06/14 00:28:52;;;;;;;0.10;0.10;;;;;;;;;;5049938;28;20235;-68
2022/06/14 00:31:21;;;;;;;0.00;0.00;;;;;;;;;;5042968;28;20255;-67
2022/06/14 00:33:47;;;;;;;0.10;0.10;;;;;;;;;;5050692;28;20403;-67
2022/06/14 00:36:22;;;;;;;0.10;0.10;;;;;;;;;;5043267;28;20306;-67
2022/06/14 00:38:48;;;;;;;0.10;0.10;;;;;;;;;;5050276;28;20218;-66
2022/06/14 00:41:21;;;;;;;0.10;0.10;;;;;;;;;;5043557;28;20403;-68
2022/06/14 00:43:48;;;;;;;0.00;0.00;;;;;;;;;;5050483;28;20240;-68
2022/06/14 00:46:16;;;;;;;0.10;0.10;;;;;;;;;;5043209;28;20589;-68
2022/06/14 00:48:44;;;;;;;0.10;0.10;;;;;;;;;;5050896;28;20201;-68
2022/06/14 00:51:14;;;;;;;0.10;0.10;;;;;;;;;;5042715;28;20317;-68
2022/06/14 00:53:46;;;;;;;0.00;0.00;;;;;;;;;;5051127;28;20213;-67
2022/06/14 00:56:14;;;;;;;0.00;0.00;;;;;;;;;;5042754;28;20294;-68
2022/06/14 00:58:43;;;;;;;0.03;0.03;;;;;;;;;;5051206;28;20438;-66
2022/06/14 01:01:11;;;;;;;0.10;0.10;;;;;;;;;;5042391;28;20302;-67
2022/06/14 01:03:39;;;;;;;0.10;0.10;;;;;;;;;;5051033;28;20265;-67
2022/06/14 01:06:10;;;;;;;0.10;0.10;;;;;;;;;;5041832;28;20263;-67
2022/06/14 01:08:38;;;;;;;0.10;0.10;;;;;;;;;;5051273;28;20215;-67
2022/06/14 01:11:07;;;;;;;0.00;0.00;;;;;;;;;;5041712;28;20249;-67
2022/06/14 01:13:35;;;;;;;0.10;0.10;;;;;;;;;;5051302;28;20534;-67
2022/06/14 01:16:01;;;;;;;0.10;0.10;;;;;;;;;;5041055;28;20308;-68
2022/06/14 01:18:28;;;;;;;0.03;0.03;;;;;;;;;;5052237;28;20208;-68
2022/06/14 01:20:54;;;;;;;0.10;0.10;;;;;;;;;;5040075;28;20242;-68
2022/06/14 01:23:22;;;;;;;0.10;0.10;;;;;;;;;;5053064;28;20207;-67
2022/06/14 01:25:50;;;;;;;0.10;0.10;;;;;;;;;;5039584;28;20443;-68
2022/06/14 01:28:19;;;;;;;0.10;0.10;;;;;;;;;;5053130;28;20617;-67
2022/06/14 01:30:47;;;;;;;0.10;0.10;;;;;;;;;;5038712;28;20240;-69
2022/06/14 01:33:17;;;;;;;0.10;0.10;;;;;;;;;;5053837;28;20278;-68
2022/06/14 01:35:45;;;;;;;0.10;0.10;;;;;;;;;;5038360;28;20347;-70
2022/06/14 01:38:13;;;;;;;0.10;0.10;;;;;;;;;;5054000;28;20204;-68
2022/06/14 01:40:47;;;;;;;0.10;0.10;;;;;;;;;;5037929;28;20454;-68
2022/06/14 01:43:22;;;;;;;0.10;0.10;;;;;;;;;;5053351;28;20209;-68
2022/06/14 01:45:51;;;;;;;0.10;0.10;;;;;;;;;;5038599;28;20267;-68
2022/06/14 01:48:22;;;;;;;0.10;0.10;;;;;;;;;;5052876;28;20235;-68
2022/06/14 01:53:43;;;;;;;0.10;0.10;;;;;;;;;;5050725;28;20321;-68
2022/06/14 01:56:13;;;;;;;0.10;0.10;;;;;;;;;;5041399;28;20283;-69
2022/06/14 01:58:43;;;;;;;0.10;0.10;;;;;;;;;;5050182;28;20217;-69
2022/06/14 02:01:14;;;;;;;0.10;0.10;;;;;;;;;;5041501;28;20250;-68
2022/06/14 02:06:34;;;;;;;0.10;0.10;;;;;;;;;;5043267;28;20266;-67
2022/06/14 02:09:03;;;;;;;0.10;0.10;;;;;;;;;;5046959;28;20210;-68
2022/06/14 02:11:32;;;;;;;0.10;0.10;;;;;;;;;;5043616;28;20241;-68
2022/06/14 02:14:03;;;;;;;0.10;0.10;;;;;;;;;;5047321;28;20234;-68
2022/06/14 02:16:33;;;;;;;0.10;0.10;;;;;;;;;;5043971;28;20247;-67
2022/06/14 02:19:01;;;;;;;0.10;0.10;;;;;;;;;;5046804;28;20454;-67
2022/06/14 02:21:29;;;;;;;0.10;0.10;;;;;;;;;;5043292;28;20240;-67
2022/06/14 02:23:59;;;;;;;0.10;0.10;;;;;;;;;;5047786;28;20440;-68
2022/06/14 02:26:28;;;;;;;0.10;0.10;;;;;;;;;;5042837;28;20305;-68
2022/06/14 02:28:58;;;;;;;0.10;0.10;;;;;;;;;;5047258;28;20235;-67
2022/06/14 02:31:26;;;;;;;0.10;0.10;;;;;;;;;;5042930;28;20244;-68
2022/06/14 02:33:55;;;;;;;0.10;0.10;;;;;;;;;;5048082;28;20236;-69
2022/06/14 02:36:25;;;;;;;0.10;0.10;;;;;;;;;;5042264;28;20240;-67
2022/06/14 02:38:54;;;;;;;0.10;0.10;;;;;;;;;;5047812;28;20215;-67
2022/06/14 02:41:21;;;;;;;0.10;0.10;;;;;;;;;;5041905;28;20241;-67
2022/06/14 02:43:50;;;;;;;0.10;0.10;;;;;;;;;;5048445;28;20232;-68
2022/06/14 02:46:21;;;;;;;0.10;0.10;;;;;;;;;;5041387;28;20308;-67
2022/06/14 02:48:49;;;;;;;0.10;0.10;;;;;;;;;;5048386;28;20205;-68
2022/06/14 02:51:18;;;;;;;0.00;0.00;;;;;;;;;;5041478;28;20248;-69
2022/06/14 02:53:46;;;;;;;0.10;0.10;;;;;;;;;;5048487;28;20275;-68
2022/06/14 02:56:15;;;;;;;0.10;0.10;;;;;;;;;;5040834;28;20389;-68
2022/06/14 02:58:45;;;;;;;0.10;0.10;;;;;;;;;;5048669;28;20268;-68
2022/06/14 03:01:15;;;;;;;0.10;0.10;;;;;;;;;;5040750;28;20251;-67
2022/06/14 03:03:46;;;;;;;0.10;0.10;;;;;;;;;;5048815;28;20275;-68
2022/06/14 03:06:13;;;;;;;0.10;0.10;;;;;;;;;;5040555;28;20302;-69
2022/06/14 03:08:46;;;;;;;0.10;0.10;;;;;;;;;;5049047;28;20263;-67
2022/06/14 03:11:17;;;;;;;0.10;0.10;;;;;;;;;;5040723;28;20240;-69
2022/06/14 03:13:48;;;;;;;0.10;0.10;;;;;;;;;;5048337;28;20274;-69
2022/06/14 03:16:20;;;;;;;0.10;0.10;;;;;;;;;;5040794;28;20244;-68
2022/06/14 03:18:51;;;;;;;0.10;0.10;;;;;;;;;;5048004;28;20241;-68
2022/06/14 03:21:19;;;;;;;0.10;0.10;;;;;;;;;;5041235;28;20264;-68
2022/06/14 03:23:50;;;;;;;0.10;0.10;;;;;;;;;;5047830;28;20264;-67
2022/06/14 03:26:18;;;;;;;0.10;0.10;;;;;;;;;;5040826;28;20250;-68
2022/06/14 03:28:47;;;;;;;0.10;0.10;;;;;;;;;;5047812;28;20299;-67
2022/06/14 03:31:15;;;;;;;0.10;0.10;;;;;;;;;;5040555;28;20257;-66
2022/06/14 03:33:46;;;;;;;0.00;0.00;;;;;;;;;;5048523;28;20205;-68
2022/06/14 03:36:14;;;;;;;0.03;0.03;;;;;;;;;;5040261;28;20308;-68
2022/06/14 03:38:43;;;;;;;0.10;0.10;;;;;;;;;;5048517;28;20240;-68
2022/06/14 03:41:11;;;;;;;0.00;0.00;;;;;;;;;;5040008;28;20262;-69
2022/06/14 03:43:39;;;;;;;0.10;0.10;;;;;;;;;;5049018;28;20260;-68
2022/06/14 03:46:07;;;;;;;0.00;0.00;;;;;;;;;;5039270;28;20301;-68
2022/06/14 03:48:37;;;;;;;0.10;0.10;;;;;;;;;;5048983;28;20246;-67
2022/06/14 03:51:09;;;;;;;0.10;0.10;;;;;;;;;;5039148;28;20428;-67
2022/06/14 03:53:43;;;;;;;0.10;0.10;;;;;;;;;;5049181;28;20412;-67
2022/06/14 03:56:19;;;;;;;0.10;0.10;;;;;;;;;;5038993;28;20239;-67
2022/06/14 03:58:58;;;;;;;0.10;0.10;;;;;;;;;;5048359;28;20282;-67
2022/06/14 04:01:27;;;;;;;0.10;0.10;;;;;;;;;;5041329;28;20319;-68
2022/06/14 04:04:04;;;;;;;0.10;0.10;;;;;;;;;;5046780;28;20261;-68
2022/06/14 04:06:43;;;;;;;0.10;0.10;;;;;;;;;;5042717;28;20506;-66
2022/06/14 04:09:16;;;;;;;0.10;0.10;;;;;;;;;;5048616;28;20237;-66
2022/06/14 04:11:47;;;;;;;0.10;0.10;;;;;;;;;;5047635;28;20307;-67
2022/06/14 04:14:20;;;;;;;0.10;0.10;;;;;;;;;;5047370;28;20268;-66
2022/06/14 04:16:53;;;;;;;0.10;0.10;;;;;;;;;;5048196;28;20252;-66
2022/06/14 04:19:25;;;;;;;0.00;0.00;;;;;;;;;;5047022;28;20219;-66
2022/06/14 04:21:54;;;;;;;0.10;0.10;;;;;;;;;;5048576;28;20501;-68
2022/06/14 04:24:30;;;;;;;0.07;0.07;;;;;;;;;;5046696;28;20206;-67
2022/06/14 04:26:58;;;;;;;0.10;0.10;;;;;;;;;;5049196;28;20435;-67
2022/06/14 04:29:30;;;;;;;0.10;0.10;;;;;;;;;;5046310;28;20206;-68
2022/06/14 04:31:58;;;;;;;0.10;0.10;;;;;;;;;;5049139;28;20572;-67
2022/06/14 04:34:29;;;;;;;0.10;0.10;;;;;;;;;;5046112;28;20565;-67
2022/06/14 04:36:57;;;;;;;0.10;0.10;;;;;;;;;;5048692;28;20247;-66
2022/06/14 04:39:28;;;;;;;0.10;0.10;;;;;;;;;;5046006;28;20209;-67
2022/06/14 04:41:59;;;;;;;0.10;0.10;;;;;;;;;;5048742;28;20534;-67
2022/06/14 04:44:28;;;;;;;0.10;0.10;;;;;;;;;;5045765;28;20228;-67
2022/06/14 04:46:58;;;;;;;0.00;0.00;;;;;;;;;;5048371;28;20255;-66
2022/06/14 04:49:29;;;;;;;0.10;0.10;;;;;;;;;;5045692;28;20201;-67
2022/06/14 04:51:58;;;;;;;0.10;0.10;;;;;;;;;;5048578;28;20248;-66
2022/06/14 04:54:27;;;;;;;0.10;0.10;;;;;;;;;;5045720;28;20528;-67
2022/06/14 04:56:56;;;;;;;0.10;0.10;;;;;;;;;;5047935;28;20375;-67
2022/06/14 04:59:27;;;;;;;0.10;0.10;;;;;;;;;;5045745;28;20269;-66
2022/06/14 05:01:56;;;;;;;0.10;0.10;;;;;;;;;;5048192;28;20587;-67
2022/06/14 05:04:26;;;;;;;0.10;0.10;;;;;;;;;;5045762;28;20205;-67
2022/06/14 05:06:55;;;;;;;0.03;0.03;;;;;;;;;;5048004;28;20248;-66
2022/06/14 05:09:23;;;;;;;0.10;0.10;;;;;;;;;;5045981;28;20231;-67
2022/06/14 05:11:55;;;;;;;0.10;0.10;;;;;;;;;;5047484;28;20241;-66
2022/06/14 05:14:24;;;;;;;0.00;0.00;;;;;;;;;;5045427;28;20210;-67
2022/06/14 05:16:53;;;;;;;0.10;0.10;;;;;;;;;;5047268;28;20471;-67
2022/06/14 05:19:22;;;;;;;0.10;0.10;;;;;;;;;;5045660;28;20209;-66
2022/06/14 05:21:51;;;;;;;0.10;0.10;;;;;;;;;;5047251;28;20248;-67
2022/06/14 05:24:17;;;;;;;0.10;0.10;;;;;;;;;;5045927;28;20222;-66
2022/06/14 05:27:03;;;;;;;0.10;0.10;;;;;;;;;;5046254;28;20254;-67
2022/06/14 05:29:35;;;;;;;0.10;0.10;;;;;;;;;;5044282;28;20248;-67
2022/06/14 05:32:04;;;;;;;0.10;0.10;;;;;;;;;;5048326;28;20249;-67
2022/06/14 05:34:34;;;;;;;0.00;0.00;;;;;;;;;;5044263;28;20223;-67
2022/06/14 05:37:02;;;;;;;0.00;0.00;;;;;;;;;;5048502;28;20242;-67
2022/06/14 05:39:31;;;;;;;0.10;0.10;;;;;;;;;;5044205;28;20236;-67
2022/06/14 05:42:01;;;;;;;0.00;0.00;;;;;;;;;;5047699;28;20242;-67
2022/06/14 05:44:31;;;;;;;0.10;0.10;;;;;;;;;;5043761;28;20272;-67
2022/06/14 05:46:59;;;;;;;0.10;0.10;;;;;;;;;;5047702;28;20286;-67
2022/06/14 05:49:29;;;;;;;0.10;0.10;;;;;;;;;;5044301;28;20458;-66
2022/06/14 05:51:58;;;;;;;0.10;0.10;;;;;;;;;;5047490;28;20492;-66
2022/06/14 05:54:27;;;;;;;1.70;1.70;;;;;;;;;;5044710;28;20236;-66
2022/06/14 05:56:56;;;;;;;0.10;0.10;;;;;;;;;;5047056;28;20239;-67
2022/06/14 05:59:31;;;;;;;0.00;0.00;;;;;;;;;;5044761;28;20200;-68
2022/06/14 06:02:01;;;;;;;0.10;0.10;;;;;;;;;;5047156;28;20253;-66
2022/06/14 06:04:31;;;;;;;0.10;0.10;;;;;;;;;;5044072;28;20376;-66
2022/06/14 06:07:00;;;;;;;0.10;0.10;;;;;;;;;;5047277;28;20242;-68
2022/06/14 06:09:29;;;;;;;0.10;0.10;;;;;;;;;;5043756;28;20291;-66
2022/06/14 06:11:57;;;;;;;0.07;0.07;;;;;;;;;;5046871;28;20251;-67
2022/06/14 06:14:27;;;;;;;0.10;0.10;;;;;;;;;;5044229;28;20392;-67
2022/06/14 06:16:56;;;;;;;0.10;0.10;;;;;;;;;;5046460;28;20261;-67
2022/06/14 06:19:26;;;;;;;0.10;0.10;;;;;;;;;;5044157;28;20226;-67
2022/06/14 06:21:55;;;;;;;0.00;0.00;;;;;;;;;;5046308;28;20248;-67
2022/06/14 06:24:24;;;;;;;0.10;0.10;;;;;;;;;;5044085;28;20206;-65
2022/06/14 06:26:51;;;;;;;0.10;0.10;;;;;;;;;;5045884;28;20240;-65
2022/06/14 06:29:21;;;;;;;0.07;0.07;;;;;;;;;;5043684;28;20235;-66
2022/06/14 06:31:47;;;;;;;0.10;0.10;;;;;;;;;;5045341;28;20302;-66
2022/06/14 06:34:15;;;;;;;0.10;0.10;;;;;;;;;;5045247;28;20209;-64
2022/06/14 06:36:48;;;;;;;0.10;0.10;;;;;;;;;;5044708;28;20246;-66
2022/06/14 06:39:20;;;;;;;0.00;0.00;;;;;;;;;;5044744;28;20265;-66
2022/06/14 06:41:54;;;;;;;0.10;0.10;;;;;;;;;;5045620;28;20242;-67
2022/06/14 06:44:23;;;;;;;0.10;0.10;;;;;;;;;;5043908;28;20249;-67
2022/06/14 06:46:52;;;;;;;0.10;0.10;;;;;;;;;;5045482;28;20246;-67
2022/06/14 06:49:22;;;;;;;0.10;0.10;;;;;;;;;;5044060;28;20241;-66
2022/06/14 06:51:53;;;;;;;0.10;0.10;;;;;;;;;;5045199;28;20315;-65
2022/06/14 06:54:21;;;;;;;0.03;0.03;;;;;;;;;;5043992;28;20575;-65
2022/06/14 06:56:50;;;;;;;0.10;0.10;;;;;;;;;;5045034;28;20245;-66
2022/06/14 06:59:21;;;;;;;0.03;0.03;;;;;;;;;;5043897;28;20489;-63
2022/06/14 07:01:49;;;;;;;0.10;0.10;;;;;;;;;;5044991;28;20243;-65
2022/06/14 07:04:19;;;;;;;0.10;0.10;;;;;;;;;;5044412;28;20276;-64
2022/06/14 07:06:47;;;;;;;0.00;0.00;;;;;;;;;;5044726;28;20244;-64
2022/06/14 07:09:17;;;;;;;0.00;0.00;;;;;;;;;;5044464;28;20253;-64
2022/06/14 07:11:46;;;;;;;0.03;0.03;;;;;;;;;;5044265;28;20304;-64
2022/06/14 07:14:15;;;;;;;0.00;0.00;;;;;;;;;;5044209;28;20217;-65
2022/06/14 07:16:44;;;;;;;0.00;0.00;;;;;;;;;;5044229;28;20240;-63
2022/06/14 07:19:18;;;;;;;0.03;0.03;;;;;;;;;;5044785;28;20206;-65
2022/06/14 07:21:46;;;;;;;0.07;0.07;;;;;;;;;;5044489;28;20241;-63
2022/06/14 07:24:14;;;;;;;0.10;0.10;;;;;;;;;;5044569;28;20208;-64
2022/06/14 07:26:45;;;;;;;0.07;0.07;;;;;;;;;;5044064;28;20574;-63
2022/06/14 07:29:15;;;;;;;0.10;0.10;;;;;;;;;;5044815;28;20423;-64
2022/06/14 07:31:44;;;;;;;0.03;0.03;;;;;;;;;;5044764;28;20317;-64
2022/06/14 07:34:11;;;;;;;0.10;0.10;;;;;;;;;;5045760;28;20207;-64
2022/06/14 07:36:43;;;;;;;0.10;0.10;;;;;;;;;;5044134;28;20326;-64
2022/06/14 07:39:13;;;;;;;0.10;0.10;;;;;;;;;;5045415;28;20203;-64
2022/06/14 07:41:44;;;;;;;0.10;0.10;;;;;;;;;;5047166;28;20257;-65
2022/06/14 07:44:16;;;;;;;0.10;0.10;;;;;;;;;;5049458;28;20206;-65
2022/06/14 07:46:47;;;;;;;0.00;0.00;;;;;;;;;;5048660;28;20251;-66
2022/06/14 07:49:18;;;;;;;0.00;0.00;;;;;;;;;;5048666;28;20296;-66
2022/06/14 07:51:46;;;;;;;0.03;0.03;;;;;;;;;;5048843;28;20468;-66
2022/06/14 07:54:21;;;;;;;0.00;0.00;;;;;;;;;;5048754;28;20379;-64
2022/06/14 07:56:49;;;;;;;0.00;0.00;;;;;;;;;;5048747;28;20234;-64
2022/06/14 07:59:19;;;;;;;0.00;0.00;;;;;;;;;;5047756;28;20213;-64
2022/06/14 08:01:48;;;;;;;0.03;0.03;;;;;;;;;;5047961;28;20565;-64
2022/06/14 08:04:16;;;;;;;0.10;0.10;;;;;;;;;;5047616;28;20211;-64
2022/06/14 08:06:44;;;;;;;0.10;0.10;;;;;;;;;;5047267;28;20307;-65
2022/06/14 08:09:12;;;;;;;0.10;0.10;;;;;;;;;;5048257;28;20419;-65
2022/06/14 08:11:42;;;;;;;0.00;0.00;;;;;;;;;;5047083;28;20321;-65
2022/06/14 08:14:10;;;;;;;0.10;0.10;;;;;;;;;;5048112;28;20504;-65
2022/06/14 08:16:38;;;;;;;0.10;0.10;;;;;;;;;;5046664;28;20241;-64
2022/06/14 08:19:06;;;;;;;0.00;0.00;;;;;;;;;;5048879;28;20506;-65
2022/06/14 08:21:35;;;;;;;0.10;0.10;;;;;;;;;;5046176;28;20243;-67
2022/06/14 08:24:05;;;;;;;0.10;0.10;;;;;;;;;;5048973;28;20547;-65
2022/06/14 08:26:33;;;;;;;0.03;0.03;;;;;;;;;;5045672;28;20246;-65
2022/06/14 08:29:02;;;;;;;0.10;0.10;;;;;;;;;;5048569;28;20313;-65
2022/06/14 08:31:32;;;;;;;0.00;0.00;;;;;;;;;;5045174;28;20243;-65
2022/06/14 08:34:04;;;;;;;0.10;0.10;;;;;;;;;;5049140;28;20205;-65
2022/06/14 08:36:37;;;;;;;0.10;0.10;;;;;;;;;;5045512;28;20335;-64
2022/06/14 08:39:07;;;;;;;0.10;0.10;;;;;;;;;;5048593;28;20270;-65
2022/06/14 08:41:44;;;;;;;0.10;0.10;;;;;;;;;;5046056;28;20397;-65
2022/06/14 08:44:12;;;;;;;0.00;0.00;;;;;;;;;;5047104;28;20247;-65
2022/06/14 08:46:41;;;;;;;0.10;0.10;;;;;;;;;;5046370;28;20265;-64
2022/06/14 08:49:18;;;;;;;0.10;0.10;;;;;;;;;;5047841;28;20374;-64
2022/06/14 08:51:58;;;;;;;0.03;0.03;;;;;;;;;;5046884;28;20274;-64
2022/06/14 08:54:45;;;;;;;0.00;0.00;;;;;;;;;;5045056;28;20291;-65
2022/06/14 08:57:33;;;;;;;0.00;0.00;;;;;;;;;;5049831;28;20311;-64
2022/06/14 09:00:23;;;;;;;0.00;0.00;;;;;;;;;;5041051;28;20200;-65
2022/06/14 09:03:20;;;;;;;0.10;0.10;;;;;;;;;;5037351;28;20197;-64
2022/06/14 09:05:57;;;;;;;0.00;0.00;;;;;;;;;;5060125;28;20241;-64
2022/06/14 09:08:39;;;;;;;0.00;0.00;;;;;;;;;;5073867;28;20211;-64
2022/06/14 09:11:21;;;;;;;0.10;0.10;;;;;;;;;;5062720;28;20566;-65
2022/06/14 09:14:00;;;;;;;0.10;0.10;;;;;;;;;;5070721;28;20212;-65
2022/06/14 09:16:36;;;;;;;0.10;0.10;;;;;;;;;;5065291;28;20283;-65
2022/06/14 09:19:07;;;;;;;0.10;0.10;;;;;;;;;;5068670;28;20272;-64
2022/06/14 09:21:43;;;;;;;0.10;0.10;;;;;;;;;;5065861;28;20250;-64
2022/06/14 09:24:15;;;;;;;0.05;0.05;;;;;;;;;;5067759;28;20401;-66
2022/06/14 09:26:46;;;;;;;0.10;0.10;;;;;;;;;;5066996;28;20248;-64
2022/06/14 09:29:33;;;;;;;0.03;0.03;;;;;;;;;;5067259;28;20266;-65
2022/06/14 09:32:12;;;;;;;0.00;0.00;;;;;;;;;;5064181;28;20239;-65
2022/06/14 09:34:47;;;;;;;0.10;0.10;;;;;;;;;;5064664;28;20192;-66
2022/06/14 09:37:43;;;;;;;0.00;0.00;;;;;;;;;;5069865;28;20340;-66
2022/06/14 09:40:28;;;;;;;0.03;0.03;;;;;;;;;;4993126;28;20606;-65
2022/06/14 09:43:09;;;;;;;0.03;0.03;;;;;;;;;;5038434;28;20236;-64
2022/06/14 09:45:59;;;;;;;0.10;0.10;;;;;;;;;;5029503;28;20254;-64
2022/06/14 09:48:44;;;;;;;0.10;0.10;;;;;;;;;;5052728;28;20236;-66
2022/06/14 09:51:29;;;;;;;0.00;0.00;;;;;;;;;;5043013;28;20239;-64
2022/06/14 09:54:10;;;;;;;0.10;0.10;;;;;;;;;;5048789;28;20205;-64
2022/06/14 09:56:54;;;;;;;0.10;0.10;;;;;;;;;;5045938;28;20303;-64
2022/06/14 09:59:39;;;;;;;0.10;0.10;;;;;;;;;;5045498;28;20205;-65
2022/06/14 10:02:11;;;;;;;0.10;0.10;;;;;;;;;;5049468;28;20242;-65
2022/06/14 10:04:52;;;;;;;0.10;0.10;;;;;;;;;;5043199;28;20235;-65
2022/06/14 10:07:26;;;;;;;0.05;0.05;;;;;;;;;;5047521;28;20335;-65
2022/06/14 10:10:00;;;;;;;0.03;0.03;;;;;;;;;;5044059;28;20216;-65
2022/06/14 10:12:42;;;;;;;0.00;0.00;;;;;;;;;;5049420;28;20472;-66
2022/06/14 10:15:13;;;;;;;0.05;0.05;;;;;;;;;;5034449;28;20383;-65
2022/06/14 10:17:46;;;;;;;0.00;0.00;;;;;;;;;;5058113;28;20208;-65
2022/06/14 10:20:23;;;;;;;0.00;0.00;;;;;;;;;;5034813;28;20348;-64
2022/06/14 10:22:56;;;;;;;0.00;0.00;;;;;;;;;;5056903;28;20196;-65
2022/06/14 10:25:25;;;;;;;0.10;0.10;;;;;;;;;;5036032;28;20265;-65
2022/06/14 10:28:14;;;;;;;0.00;0.00;;;;;;;;;;5056406;28;20225;-65
2022/06/14 10:30:55;;;;;;;0.00;0.00;;;;;;;;;;5038082;28;20240;-65
2022/06/14 10:33:43;;;;;;;0.05;0.05;;;;;;;;;;5049855;28;20205;-65
2022/06/14 10:36:27;;;;;;;0.03;0.03;;;;;;;;;;5041652;28;20240;-65
2022/06/14 10:39:02;;;;;;;0.03;0.03;;;;;;;;;;5027874;28;20414;-64
2022/06/14 10:41:33;;;;;;;0.10;0.10;;;;;;;;;;5044066;28;20262;-64
2022/06/14 10:44:10;;;;;;;0.00;0.00;;;;;;;;;;5047628;28;20208;-64
2022/06/14 10:46:43;;;;;;;0.05;0.05;;;;;;;;;;5045006;28;20247;-65
2022/06/14 10:49:19;;;;;;;0.00;0.00;;;;;;;;;;5046235;28;20233;-67
2022/06/14 10:51:54;;;;;;;0.03;0.03;;;;;;;;;;5045854;28;20266;-66
2022/06/14 10:54:25;;;;;;;0.00;0.00;;;;;;;;;;5044716;28;20204;-66
2022/06/14 10:57:03;;;;;;;0.10;0.10;;;;;;;;;;5046390;28;20512;-67
2022/06/14 10:59:40;;;;;;;0.00;0.00;;;;;;;;;;5043645;28;20200;-67
2022/06/14 11:02:12;;;;;;;0.10;0.10;;;;;;;;;;5048628;28;20449;-66
2022/06/14 11:04:42;;;;;;;0.03;0.03;;;;;;;;;;5043154;28;20481;-67
2022/06/14 11:07:41;;;;;;;0.00;0.00;;;;;;;;;;5048243;28;20302;-68
2022/06/14 11:10:19;;;;;;;0.00;0.00;;;;;;;;;;4991860;28;20217;-65
2022/06/14 11:12:52;;;;;;;0.00;0.00;;;;;;;;;;5001591;28;20264;-66
2022/06/14 11:15:24;;;;;;;0.10;0.10;;;;;;;;;;5015769;28;20283;-64
2022/06/14 11:18:01;;;;;;;0.10;0.10;;;;;;;;;;5056153;28;20283;-65
2022/06/14 11:20:32;;;;;;;0.03;0.03;;;;;;;;;;5035613;28;20243;-65
2022/06/14 11:23:02;;;;;;;0.10;0.10;;;;;;;;;;5054915;28;20264;-65
2022/06/14 11:25:32;;;;;;;0.08;0.08;;;;;;;;;;5035990;28;20434;-65
2022/06/14 11:28:02;;;;;;;0.10;0.10;;;;;;;;;;5054796;28;20236;-65
2022/06/14 11:30:36;;;;;;;0.00;0.00;;;;;;;;;;5035785;28;20246;-64
2022/06/14 11:33:05;;;;;;;0.00;0.00;;;;;;;;;;5054605;28;20236;-63
2022/06/14 11:35:39;;;;;;;0.00;0.00;;;;;;;;;;5036073;28;20248;-64
2022/06/14 11:38:17;;;;;;;0.00;0.00;;;;;;;;;;5053632;28;20205;-65
2022/06/14 11:40:47;;;;;;;0.03;0.03;;;;;;;;;;5037283;28;20244;-65
2022/06/14 11:43:22;;;;;;;0.00;0.00;;;;;;;;;;5052976;28;20204;-65
2022/06/14 11:45:56;;;;;;;0.00;0.00;;;;;;;;;;5038531;28;20443;-64
2022/06/14 11:48:26;;;;;;;0.05;0.05;;;;;;;;;;5051539;28;20241;-65
2022/06/14 11:50:55;;;;;;;0.05;0.05;;;;;;;;;;5037572;28;20317;-64
2022/06/14 11:53:32;;;;;;;0.00;0.00;;;;;;;;;;5052494;28;20217;-65
2022/06/14 11:56:02;;;;;;;0.00;0.00;;;;;;;;;;5039165;28;20244;-62
2022/06/14 11:58:33;;;;;;;0.00;0.00;;;;;;;;;;5050933;28;20205;-64
2022/06/14 12:01:06;;;;;;;0.00;0.00;;;;;;;;;;5038753;28;20243;-65
2022/06/14 12:03:40;;;;;;;0.00;0.00;;;;;;;;;;5051058;28;20533;-63
2022/06/14 12:06:11;;;;;;;0.00;0.00;;;;;;;;;;5040265;28;20246;-64
2022/06/14 12:08:56;;;;;;;0.00;0.00;;;;;;;;;;5049699;28;20212;-64
2022/06/14 12:11:24;;;;;;;0.00;0.00;;;;;;;;;;5042396;28;20245;-63
2022/06/14 12:14:01;;;;;;;0.00;0.00;;;;;;;;;;5047935;28;20238;-65
2022/06/14 12:16:33;;;;;;;0.00;0.00;;;;;;;;;;5041911;28;20275;-64
2022/06/14 12:19:05;;;;;;;0.10;0.10;;;;;;;;;;5047600;28;20214;-64
2022/06/14 12:21:36;;;;;;;0.10;0.10;;;;;;;;;;5043147;28;20242;-64
2022/06/14 12:24:05;;;;;;;0.00;0.00;;;;;;;;;;5046312;28;20398;-65
2022/06/14 12:26:34;;;;;;;0.00;0.00;;;;;;;;;;5042044;28;20242;-64
2022/06/14 12:29:05;;;;;;;0.20;0.20;;;;;;;;;;5050280;28;20249;-64
2022/06/14 12:31:39;;;;;;;0.00;0.00;;;;;;;;;;5046805;28;20318;-64
2022/06/14 12:34:08;;;;;;;0.05;0.05;;;;;;;;;;5049372;28;20253;-64
2022/06/14 12:36:37;;;;;;;0.10;0.10;;;;;;;;;;5045928;28;20251;-64
2022/06/14 12:39:07;;;;;;;0.10;0.10;;;;;;;;;;5050314;28;20207;-65
2022/06/14 12:41:35;;;;;;;0.03;0.03;;;;;;;;;;5047022;28;20303;-65
2022/06/14 12:44:06;;;;;;;0.00;0.00;;;;;;;;;;5049328;28;20246;-65
2022/06/14 12:46:37;;;;;;;0.10;0.10;;;;;;;;;;5047020;28;20317;-65
2022/06/14 12:49:08;;;;;;;0.00;0.00;;;;;;;;;;5049532;28;20211;-66
2022/06/14 12:51:40;;;;;;;0.00;0.00;;;;;;;;;;5046885;28;20308;-65
2022/06/14 12:54:15;;;;;;;0.08;0.08;;;;;;;;;;5049017;28;20206;-65
2022/06/14 12:56:43;;;;;;;0.00;0.00;;;;;;;;;;5046494;28;20243;-65
2022/06/14 12:59:16;;;;;;;0.10;0.10;;;;;;;;;;5049069;28;20285;-64
2022/06/14 13:01:47;;;;;;;0.00;0.00;;;;;;;;;;5047543;28;20258;-65
2022/06/14 13:04:15;;;;;;;0.00;0.00;;;;;;;;;;5048102;28;20286;-64
2022/06/14 13:07:07;;;;;;;0.10;0.10;;;;;;;;;;5046722;28;20270;-67
2022/06/14 13:09:39;;;;;;;0.00;0.00;;;;;;;;;;5045883;28;20198;-66
2022/06/14 13:12:12;;;;;;;0.10;0.10;;;;;;;;;;5050436;28;20246;-66
2022/06/14 13:14:42;;;;;;;0.00;0.00;;;;;;;;;;5045116;28;20208;-65
2022/06/14 13:17:18;;;;;;;0.00;0.00;;;;;;;;;;5050426;28;20240;-65
2022/06/14 13:19:48;;;;;;;0.00;0.00;;;;;;;;;;5045036;28;20192;-66
2022/06/14 13:22:19;;;;;;;0.00;0.00;;;;;;;;;;5050266;28;20241;-65
2022/06/14 13:24:53;;;;;;;0.00;0.00;;;;;;;;;;5044803;28;20222;-66
2022/06/14 13:27:23;;;;;;;0.00;0.00;;;;;;;;;;5050116;28;20258;-66
2022/06/14 13:29:55;;;;;;;0.00;0.00;;;;;;;;;;5044980;28;20376;-67
2022/06/14 13:32:35;;;;;;;0.00;0.00;;;;;;;;;;5050284;28;20550;-66
2022/06/14 13:35:10;;;;;;;0.00;0.00;;;;;;;;;;5044899;28;20195;-66
2022/06/14 13:37:42;;;;;;;0.00;0.00;;;;;;;;;;5036714;28;20225;-66
2022/06/14 13:40:10;;;;;;;0.00;0.00;;;;;;;;;;5054585;28;20295;-66
2022/06/14 13:42:40;;;;;;;0.03;0.03;;;;;;;;;;5079492;28;20274;-68
2022/06/14 13:45:10;;;;;;;0.00;0.00;;;;;;;;;;5055717;28;20207;-66
2022/06/14 13:47:41;;;;;;;0.10;0.10;;;;;;;;;;5079110;28;20242;-66
2022/06/14 13:50:09;;;;;;;0.00;0.00;;;;;;;;;;5054778;28;20430;-67
2022/06/14 13:52:38;;;;;;;0.08;0.08;;;;;;;;;;5078929;28;20276;-66
2022/06/14 13:55:08;;;;;;;0.08;0.08;;;;;;;;;;5061208;28;20210;-66
2022/06/14 13:57:38;;;;;;;0.05;0.05;;;;;;;;;;5078559;28;20245;-67
2022/06/14 14:00:06;;;;;;;0.00;0.00;;;;;;;;;;5063715;28;20196;-68
2022/06/14 14:02:36;;;;;;;0.00;0.00;;;;;;;;;;5069003;28;20246;-67
2022/06/14 14:05:07;;;;;;;0.00;0.00;;;;;;;;;;5063355;28;20193;-67
2022/06/14 14:07:37;;;;;;;0.10;0.10;;;;;;;;;;5031726;28;20207;-67
2022/06/14 14:10:25;;;;;;;0.00;0.00;;;;;;;;;;5043340;28;20195;-66
2022/06/14 14:12:55;;;;;;;0.00;0.00;;;;;;;;;;5062837;28;20202;-66
2022/06/14 14:15:27;;;;;;;0.00;0.00;;;;;;;;;;5055341;28;20397;-66
2022/06/14 14:17:58;;;;;;;0.00;0.00;;;;;;;;;;5075735;28;20274;-66
2022/06/14 14:20:34;;;;;;;0.00;0.00;;;;;;;;;;5054218;28;20194;-66
2022/06/14 14:23:04;;;;;;;0.00;0.00;;;;;;;;;;5076137;28;20216;-66
2022/06/14 14:25:32;;;;;;;0.08;0.08;;;;;;;;;;5055343;28;20257;-66
2022/06/14 14:28:02;;;;;;;0.00;0.00;;;;;;;;;;5074795;28;20225;-66
2022/06/14 14:30:44;;;;;;;0.00;0.00;;;;;;;;;;5055722;28;20242;-66
2022/06/14 14:33:14;;;;;;;0.00;0.00;;;;;;;;;;5073567;28;20218;-67
2022/06/14 14:35:45;;;;;;;0.00;0.00;;;;;;;;;;5057167;28;20247;-66
2022/06/14 14:38:13;;;;;;;0.10;0.10;;;;;;;;;;5073214;28;20210;-66
2022/06/14 14:41:32;;;;;;;0.05;0.05;;;;;;;;;;5055686;28;20305;-66
2022/06/14 14:43:27;;;;;;;0.00;0.00;;;;;;;;;;5072368;28;20509;-65
2022/06/14 14:45:55;;;;;;;0.00;0.00;;;;;;;;;;5057894;28;20246;-66
2022/06/14 14:48:26;;;;;;;0.00;0.00;;;;;;;;;;5072313;28;20207;-66
2022/06/14 14:50:58;;;;;;;0.00;0.00;;;;;;;;;;5056618;28;20257;-65
2022/06/14 14:53:28;;;;;;;0.00;0.00;;;;;;;;;;5072531;28;20215;-65
2022/06/14 14:55:58;;;;;;;0.00;0.00;;;;;;;;;;5058789;28;20241;-65
2022/06/14 14:58:29;;;;;;;0.00;0.00;;;;;;;;;;5071243;28;20271;-67
2022/06/14 15:06:36;;;;;;;0.00;0.00;;;;;;;;;;5063830;28;20289;-66
2022/06/14 15:09:05;;;;;;;0.00;0.00;;;;;;;;;;5066550;28;20209;-65
2022/06/14 15:11:32;;;;;;;0.00;0.00;;;;;;;;;;5061970;28;20518;-66
2022/06/14 15:13:59;;;;;;;0.00;0.00;;;;;;;;;;5067998;28;20213;-66
2022/06/14 15:16:26;;;;;;;0.00;0.00;;;;;;;;;;5061158;28;20308;-66
2022/06/14 15:21:42;;;;;;;0.00;0.00;;;;;;;;;;5064039;28;20293;-65
2022/06/14 15:24:13;;;;;;;0.00;0.00;;;;;;;;;;5065302;28;20210;-66